Time;durP1;ratioP1;P1;durP2;ratioP2;P2;SDS_P1;SDS_P2;PMS_P1;PMS_P2;Temp;Humidity;BMP_temperature;BMP_pressure;BME280_temperature;BME280_humidity;BME280_pressure;Samples;Min_cycle;Max_cycle;Signal;HPM_P1;HPM_P2
2022/08/09 11:21:54;;;;;;;;;;;11.70;91.80;;;;;;6092246;23;20598;-75
2022/08/09 11:24:20;;;;;;;;;;;11.70;92.10;;;;;;6092256;23;19909;-72
2022/08/09 11:26:49;;;;;;;;;;;11.70;92.00;;;;;;6093677;23;20543;-75
2022/08/09 11:29:33;;;;;;;;;;;11.70;92.10;;;;;;6091782;23;20289;-73
2022/08/09 11:32:00;;;;;;;;;;;11.70;92.20;;;;;;6093863;23;19910;-76
2022/08/09 11:34:42;;;;;;;;;;;11.70;92.40;;;;;;6092157;23;19940;-72
2022/08/09 11:37:10;;;;;;;;;;;11.70;92.40;;;;;;6091657;23;19912;-80
2022/08/09 11:39:55;;;;;;;;;;;11.70;92.60;;;;;;6092153;23;19913;-75
2022/08/09 11:42:40;;;;;;;;;;;11.70;92.40;;;;;;6094074;23;19909;-75
2022/08/09 11:45:23;;;;;;;;;;;11.60;92.30;;;;;;6092535;23;19916;-74
2022/08/09 11:47:51;;;;;;;;;;;11.60;92.30;;;;;;6093784;23;20340;-74
2022/08/09 11:50:18;;;;;;;;;;;11.50;92.20;;;;;;6091766;23;19953;-74
2022/08/09 11:52:59;;;;;;;;;;;11.60;92.40;;;;;;6089703;23;19917;-78
2022/08/09 11:55:30;;;;;;;;;;;11.60;92.40;;;;;;6094189;23;19961;-78
2022/08/09 11:57:57;;;;;;;;;;;11.60;92.40;;;;;;6094081;23;19996;-74
2022/08/09 12:00:24;;;;;;;;;;;11.60;92.40;;;;;;6092185;23;19964;-74
2022/08/09 12:02:51;;;;;;;;;;;11.60;92.70;;;;;;6093536;23;19910;-73
2022/08/09 12:05:18;;;;;;;;;;;11.60;92.70;;;;;;6092496;23;20032;-73
2022/08/09 12:07:44;;;;;;;;;;;11.60;92.80;;;;;;6093713;23;19913;-73
2022/08/09 12:10:11;;;;;;;;;;;11.60;92.70;;;;;;6093775;23;19959;-74
2022/08/09 12:12:46;;;;;;;;;;;11.60;92.80;;;;;;6068097;23;20596;-74
2022/08/09 12:15:19;;;;;;;;;;;11.60;92.90;;;;;;6090941;23;19943;-73
2022/08/09 12:17:47;;;;;;;;;;;11.50;92.90;;;;;;6093068;23;19917;-73
2022/08/09 12:20:17;;;;;;;;;;;11.60;93.10;;;;;;6092723;23;19921;-73
2022/08/09 12:22:44;;;;;;;;;;;11.50;93.30;;;;;;6093255;23;19936;-73
2022/08/09 12:25:12;;;;;;;;;;;11.50;93.60;;;;;;6092143;23;19916;-74
2022/08/09 12:27:38;;;;;;;;;;;11.50;93.80;;;;;;6093134;23;19953;-73
2022/08/09 12:30:06;;;;;;;;;;;11.50;94.00;;;;;;6092698;23;19992;-75
2022/08/09 12:32:32;;;;;;;;;;;11.60;94.10;;;;;;6091894;23;19909;-75
2022/08/09 12:35:02;;;;;;;;;;;11.50;94.00;;;;;;6090628;23;19913;-74
2022/08/09 12:37:38;;;;;;;;;;;11.50;94.20;;;;;;6092550;23;20241;-74
2022/08/09 12:40:06;;;;;;;;;;;11.50;94.20;;;;;;6092708;23;20438;-75
2022/08/09 12:42:33;;;;;;;;;;;11.50;94.20;;;;;;6090785;23;20041;-74
2022/08/09 12:44:59;;;;;;;;;;;11.50;94.30;;;;;;6091096;23;19920;-74
2022/08/09 12:47:26;;;;;;;;;;;11.50;94.30;;;;;;6092261;23;19917;-73
2022/08/09 12:50:38;;;;;;;;;;;11.50;94.40;;;;;;6091966;23;19913;-73
2022/08/09 12:52:40;;;;;;;;;;;11.40;94.40;;;;;;6064923;23;19915;-73
2022/08/09 12:55:08;;;;;;;;;;;11.50;94.50;;;;;;6090851;23;19905;-73
2022/08/09 12:57:39;;;;;;;;;;;11.50;94.50;;;;;;6091231;23;19915;-73
2022/08/09 13:00:22;;;;;;;;;;;11.40;94.50;;;;;;6067339;23;19912;-73
2022/08/09 13:02:49;;;;;;;;;;;11.40;94.50;;;;;;6091175;23;19948;-74
2022/08/09 13:05:16;;;;;;;;;;;11.40;94.50;;;;;;6092471;23;19906;-73
2022/08/09 13:08:03;;;;;;;;;;;11.40;94.50;;;;;;6092267;23;19952;-74
2022/08/09 13:10:29;;;;;;;;;;;11.50;94.60;;;;;;6093333;23;19913;-74
2022/08/09 13:12:59;;;;;;;;;;;11.40;94.60;;;;;;6091565;23;19965;-74
2022/08/09 13:15:25;;;;;;;;;;;11.40;94.50;;;;;;6092329;23;19909;-76
2022/08/09 13:17:52;;;;;;;;;;;11.30;94.60;;;;;;6091238;23;19916;-73
2022/08/09 13:20:31;;;;;;;;;;;11.30;94.60;;;;;;6092924;23;19972;-73
2022/08/09 13:22:59;;;;;;;;;;;11.30;94.60;;;;;;6093510;23;19909;-73
2022/08/09 13:25:25;;;;;;;;;;;11.30;94.60;;;;;;6092057;23;19909;-72
2022/08/09 13:27:52;;;;;;;;;;;11.30;94.60;;;;;;6092514;23;19921;-72
2022/08/09 13:30:19;;;;;;;;;;;11.30;94.70;;;;;;6091014;23;19906;-72
2022/08/09 13:32:52;;;;;;;;;;;11.30;94.80;;;;;;6092846;23;19984;-73
2022/08/09 13:35:22;;;;;;;;;;;11.30;94.70;;;;;;6093014;23;19951;-73
2022/08/09 13:37:49;;;;;;;;;;;11.30;94.70;;;;;;6091713;23;19913;-73
2022/08/09 13:40:16;;;;;;;;;;;11.30;94.80;;;;;;6093658;23;20293;-71
2022/08/09 13:42:42;;;;;;;;;;;11.30;94.70;;;;;;6070845;23;19909;-70
2022/08/09 13:45:09;;;;;;;;;;;11.20;94.70;;;;;;6094273;23;20281;-71
2022/08/09 13:47:36;;;;;;;;;;;11.20;94.70;;;;;;6095936;23;19968;-71
2022/08/09 13:50:04;;;;;;;;;;;11.20;94.70;;;;;;6096602;23;19976;-71
2022/08/09 13:52:32;;;;;;;;;;;11.20;94.70;;;;;;6095799;23;19909;-71
2022/08/09 13:54:59;;;;;;;;;;;11.20;94.70;;;;;;6096756;23;19935;-71
2022/08/09 13:57:25;;;;;;;;;;;11.20;94.80;;;;;;6096928;23;19948;-71
2022/08/09 13:59:52;;;;;;;;;;;11.20;94.60;;;;;;6096627;23;19999;-71
2022/08/09 14:02:19;;;;;;;;;;;11.20;94.70;;;;;;6095853;23;20090;-71
2022/08/09 14:04:45;;;;;;;;;;;11.10;94.70;;;;;;6095944;23;20232;-72
2022/08/09 14:07:12;;;;;;;;;;;11.10;94.80;;;;;;6096327;23;20235;-71
2022/08/09 18:26:54;;;;;;;;;;;10.60;95.40;;;;;;6151447;23;19928;-61
2022/08/09 18:29:21;;;;;;;;;;;10.60;95.40;;;;;;6154575;23;19915;-62
2022/08/09 18:31:48;;;;;;;;;;;10.50;95.40;;;;;;6128986;23;19904;-61
2022/08/09 18:34:14;;;;;;;;;;;10.60;95.50;;;;;;6154961;23;19911;-62
2022/08/09 18:36:42;;;;;;;;;;;10.50;95.50;;;;;;6128263;23;19928;-61
2022/08/09 18:39:09;;;;;;;;;;;10.60;95.50;;;;;;6154387;23;19916;-62
2022/08/09 18:41:36;;;;;;;;;;;10.70;95.60;;;;;;6154772;23;19904;-62
2022/08/09 18:44:06;;;;;;;;;;;10.60;95.60;;;;;;6128148;23;20007;-61
2022/08/09 18:46:33;;;;;;;;;;;10.60;95.50;;;;;;6154387;23;19908;-62
2022/08/09 18:48:59;;;;;;;;;;;10.50;95.40;;;;;;6154694;23;19932;-61
2022/08/09 18:51:26;;;;;;;;;;;10.60;95.50;;;;;;6128171;23;19992;-61
2022/08/09 18:53:52;;;;;;;;;;;10.50;95.60;;;;;;6154663;23;19909;-61
2022/08/09 18:56:19;;;;;;;;;;;10.50;95.50;;;;;;6154113;23;19919;-62
2022/08/09 18:58:46;;;;;;;;;;;10.50;95.50;;;;;;6128696;23;19915;-62
2022/08/09 19:01:13;;;;;;;;;;;10.60;95.50;;;;;;6154434;23;19912;-61
2022/08/09 19:03:39;;;;;;;;;;;10.60;95.50;;;;;;6154273;23;19904;-61
2022/08/09 19:06:06;;;;;;;;;;;10.50;95.40;;;;;;6153537;23;19904;-62
2022/08/09 19:08:33;;;;;;;;;;;10.50;95.30;;;;;;6154302;23;19919;-62
2022/08/09 19:10:59;;;;;;;;;;;10.40;95.00;;;;;;6154778;23;19912;-62
2022/08/09 19:13:26;;;;;;;;;;;10.40;95.10;;;;;;6154132;23;19904;-62
2022/08/09 19:15:52;;;;;;;;;;;10.40;95.10;;;;;;6156153;23;19912;-61
2022/08/09 19:18:22;;;;;;;;;;;10.40;94.90;;;;;;6156651;23;19905;-64
2022/08/09 19:20:48;;;;;;;;;;;10.30;94.60;;;;;;6154485;23;20088;-62
2022/08/09 19:23:18;;;;;;;;;;;10.20;94.40;;;;;;6154067;23;19915;-62
2022/08/09 19:25:44;;;;;;;;;;;10.20;94.50;;;;;;6155574;23;19908;-62
2022/08/09 19:28:11;;;;;;;;;;;10.20;94.60;;;;;;6134377;23;19924;-62
2022/08/09 19:30:38;;;;;;;;;;;10.20;94.50;;;;;;6125668;23;19909;-61
2022/08/09 19:33:05;;;;;;;;;;;10.20;94.50;;;;;;6125284;23;19904;-64
2022/08/09 19:35:32;;;;;;;;;;;10.20;94.30;;;;;;6125381;23;19956;-62
2022/08/09 19:37:58;;;;;;;;;;;10.10;94.30;;;;;;6123465;23;19905;-62
2022/08/09 19:40:25;;;;;;;;;;;10.10;94.20;;;;;;6125470;23;19909;-62
2022/08/09 19:42:52;;;;;;;;;;;10.00;94.10;;;;;;6126195;23;20317;-62
2022/08/09 19:45:18;;;;;;;;;;;10.00;94.10;;;;;;6125344;23;19922;-62
2022/08/09 19:47:45;;;;;;;;;;;10.00;93.90;;;;;;6126045;23;20330;-61
2022/08/09 19:50:12;;;;;;;;;;;10.00;93.70;;;;;;6126235;23;19909;-63
2022/08/09 19:52:41;;;;;;;;;;;10.00;93.70;;;;;;6126557;23;19916;-63
2022/08/09 19:55:08;;;;;;;;;;;10.00;93.80;;;;;;6124828;23;19916;-62
2022/08/09 19:57:35;;;;;;;;;;;10.00;93.80;;;;;;6125557;23;19912;-62
2022/08/09 20:00:02;;;;;;;;;;;10.00;93.70;;;;;;6126256;23;20313;-63
2022/08/09 20:02:29;;;;;;;;;;;10.00;93.60;;;;;;6125588;23;19905;-62
2022/08/09 20:04:55;;;;;;;;;;;10.00;93.50;;;;;;6126239;23;19904;-62
2022/08/09 20:07:22;;;;;;;;;;;10.00;93.50;;;;;;6126081;23;19981;-62
2022/08/09 20:09:48;;;;;;;;;;;10.00;93.40;;;;;;6126659;23;19911;-62
2022/08/09 20:12:15;;;;;;;;;;;10.00;93.20;;;;;;6126181;23;19916;-62
2022/08/09 20:14:42;;;;;;;;;;;9.90;93.20;;;;;;6125908;23;19980;-62
2022/08/09 20:17:09;;;;;;;;;;;10.00;93.20;;;;;;6125946;23;19913;-62
2022/08/09 20:19:35;;;;;;;;;;;10.00;93.40;;;;;;6126549;23;20324;-62
2022/08/09 20:22:02;;;;;;;;;;;10.00;93.20;;;;;;6126390;23;19913;-62
2022/08/09 20:24:29;;;;;;;;;;;10.00;93.20;;;;;;6125757;23;19949;-62
2022/08/09 20:26:55;;;;;;;;;;;10.00;93.20;;;;;;6125351;23;19921;-62
2022/08/09 20:29:22;;;;;;;;;;;10.00;93.10;;;;;;6125532;23;19984;-62
2022/08/09 20:31:48;;;;;;;;;;;10.00;93.00;;;;;;6125597;23;19905;-62
2022/08/09 20:34:15;;;;;;;;;;;9.90;92.70;;;;;;6125550;23;19956;-62
2022/08/09 20:36:42;;;;;;;;;;;9.90;92.70;;;;;;6125637;23;19961;-62
2022/08/09 20:39:08;;;;;;;;;;;9.90;92.80;;;;;;6125787;23;19912;-62
2022/08/09 20:41:35;;;;;;;;;;;9.90;92.70;;;;;;6125788;23;19912;-62
2022/08/09 20:44:02;;;;;;;;;;;9.80;92.70;;;;;;6125508;23;19913;-64
2022/08/09 20:46:28;;;;;;;;;;;9.80;92.50;;;;;;6125897;23;19943;-63
2022/08/09 20:48:55;;;;;;;;;;;9.70;92.80;;;;;;6125860;23;19916;-62
2022/08/09 20:51:24;;;;;;;;;;;9.80;93.00;;;;;;6125321;23;19905;-63
2022/08/09 20:53:51;;;;;;;;;;;9.80;92.90;;;;;;6125562;23;19912;-62
2022/08/09 20:56:20;;;;;;;;;;;9.80;93.20;;;;;;6125777;23;19909;-62
2022/08/09 20:58:50;;;;;;;;;;;9.80;93.00;;;;;;6125440;23;19904;-63
2022/08/09 21:01:18;;;;;;;;;;;9.90;93.10;;;;;;6100114;23;19905;-62
2022/08/09 21:03:45;;;;;;;;;;;9.90;93.20;;;;;;6125506;23;20000;-62
2022/08/09 21:06:11;;;;;;;;;;;9.90;92.70;;;;;;6125525;23;19905;-62
2022/08/09 21:08:38;;;;;;;;;;;9.90;92.80;;;;;;6125473;23;19972;-63
2022/08/09 21:11:05;;;;;;;;;;;9.90;92.80;;;;;;6124974;23;19967;-62
2022/08/09 21:13:31;;;;;;;;;;;9.90;92.80;;;;;;6125249;23;19984;-62
2022/08/09 21:15:58;;;;;;;;;;;9.90;92.80;;;;;;6124926;23;19956;-62
2022/08/09 21:18:24;;;;;;;;;;;9.90;92.70;;;;;;6125389;23;19936;-63
2022/08/09 21:20:51;;;;;;;;;;;9.90;92.60;;;;;;6125708;23;19905;-63
2022/08/09 21:23:17;;;;;;;;;;;10.00;92.50;;;;;;6125286;23;19976;-64
2022/08/09 21:25:50;;;;;;;;;;;10.00;92.50;;;;;;6125031;23;20240;-63
2022/08/09 21:28:17;;;;;;;;;;;9.90;92.40;;;;;;6124795;23;19917;-63
2022/08/09 21:30:44;;;;;;;;;;;10.00;92.40;;;;;;6099375;23;19905;-63
2022/08/09 21:33:10;;;;;;;;;;;10.00;92.30;;;;;;6125374;23;19905;-63
2022/08/09 21:35:37;;;;;;;;;;;10.00;92.10;;;;;;6125172;23;20339;-63
2022/08/09 21:38:04;;;;;;;;;;;10.00;92.30;;;;;;6124998;23;19905;-63
2022/08/09 21:40:30;;;;;;;;;;;10.10;92.30;;;;;;6125108;23;20321;-63
2022/08/09 21:42:57;;;;;;;;;;;10.10;92.20;;;;;;6125490;23;19995;-63
2022/08/09 21:45:24;;;;;;;;;;;10.20;92.20;;;;;;6125014;23;20237;-63
2022/08/09 21:47:51;;;;;;;;;;;10.20;92.00;;;;;;6125238;23;20252;-63
2022/08/09 21:50:17;;;;;;;;;;;10.20;91.80;;;;;;6125264;23;20276;-64
2022/08/09 21:52:45;;;;;;;;;;;10.20;91.90;;;;;;6125426;23;19905;-63
2022/08/09 21:55:12;;;;;;;;;;;10.30;92.00;;;;;;6125120;23;19952;-63
2022/08/09 21:57:38;;;;;;;;;;;10.30;91.70;;;;;;6125094;23;19975;-64
2022/08/09 22:00:07;;;;;;;;;;;10.30;91.40;;;;;;6125292;23;19905;-63
2022/08/09 22:02:34;;;;;;;;;;;10.30;91.00;;;;;;6124943;23;19905;-63
2022/08/09 22:05:00;;;;;;;;;;;10.30;91.10;;;;;;6125305;23;19905;-63
2022/08/09 22:07:27;;;;;;;;;;;10.30;90.90;;;;;;6125414;23;20004;-64
2022/08/09 22:09:54;;;;;;;;;;;10.30;90.60;;;;;;6124934;23;19912;-64
2022/08/09 22:12:20;;;;;;;;;;;10.30;90.70;;;;;;6125264;23;19905;-64
2022/08/09 22:14:47;;;;;;;;;;;10.40;90.50;;;;;;6124892;23;20236;-64
2022/08/09 22:17:13;;;;;;;;;;;10.30;90.00;;;;;;6125524;23;20224;-64
2022/08/09 22:19:40;;;;;;;;;;;10.40;90.20;;;;;;6125240;23;20344;-64
2022/08/09 22:22:06;;;;;;;;;;;10.50;90.10;;;;;;6124256;23;19908;-64
2022/08/09 22:24:33;;;;;;;;;;;10.50;90.30;;;;;;6125315;23;19911;-64
2022/08/09 22:27:00;;;;;;;;;;;10.60;90.30;;;;;;6124917;23;19917;-64
2022/08/09 22:29:26;;;;;;;;;;;10.60;89.80;;;;;;6123989;23;19905;-63
2022/08/09 22:31:53;;;;;;;;;;;10.70;89.90;;;;;;6124751;23;19913;-64
2022/08/09 22:34:20;;;;;;;;;;;10.70;90.00;;;;;;6098532;23;20272;-64
2022/08/09 22:36:47;;;;;;;;;;;10.70;90.20;;;;;;6125649;23;19932;-64
2022/08/09 22:39:14;;;;;;;;;;;10.80;89.70;;;;;;6125155;23;19915;-64
2022/08/09 22:41:40;;;;;;;;;;;10.80;89.50;;;;;;6125138;23;19916;-64
2022/08/09 22:44:07;;;;;;;;;;;10.80;89.60;;;;;;6125061;23;19905;-64
2022/08/09 22:46:33;;;;;;;;;;;10.90;89.60;;;;;;6124848;23;19960;-64
2022/08/09 22:49:03;;;;;;;;;;;11.00;89.70;;;;;;6125012;23;19905;-64
2022/08/09 22:51:29;;;;;;;;;;;11.00;89.70;;;;;;6126595;23;19905;-64
2022/08/09 22:53:56;;;;;;;;;;;11.00;89.90;;;;;;6126477;23;19968;-64
2022/08/09 22:56:22;;;;;;;;;;;11.00;89.60;;;;;;6127078;23;19979;-64
2022/08/09 22:58:49;;;;;;;;;;;11.10;90.10;;;;;;6126602;23;19907;-63
2022/08/09 23:01:16;;;;;;;;;;;11.10;89.80;;;;;;6126660;23;19913;-64
2022/08/09 23:03:42;;;;;;;;;;;11.10;89.20;;;;;;6126553;23;19912;-63
2022/08/09 23:06:09;;;;;;;;;;;11.10;88.60;;;;;;6126449;23;19984;-64
2022/08/09 23:08:44;;;;;;;;;;;11.10;88.20;;;;;;6126727;23;19921;-64
2022/08/09 23:11:15;;;;;;;;;;;11.20;88.70;;;;;;6126459;23;19921;-63
2022/08/09 23:13:42;;;;;;;;;;;11.20;88.90;;;;;;6101077;23;19912;-63
2022/08/09 23:16:09;;;;;;;;;;;11.20;88.50;;;;;;6125332;23;20343;-64
2022/08/09 23:18:35;;;;;;;;;;;11.20;88.80;;;;;;6100524;23;19905;-63
2022/08/09 23:21:02;;;;;;;;;;;11.30;89.20;;;;;;6126520;23;19904;-63
2022/08/09 23:23:28;;;;;;;;;;;11.30;88.90;;;;;;6126381;23;19905;-64
2022/08/09 23:25:55;;;;;;;;;;;11.40;88.80;;;;;;6127003;23;20013;-64
2022/08/09 23:28:22;;;;;;;;;;;11.40;89.00;;;;;;6123942;23;19921;-64
2022/08/09 23:30:48;;;;;;;;;;;11.50;89.10;;;;;;6156478;23;19912;-64
2022/08/09 23:33:15;;;;;;;;;;;11.50;89.00;;;;;;6156143;23;19911;-64
2022/08/09 23:35:41;;;;;;;;;;;11.50;89.00;;;;;;6155594;23;19912;-64
2022/08/09 23:38:08;;;;;;;;;;;11.60;88.80;;;;;;6155770;23;20323;-64
2022/08/09 23:40:34;;;;;;;;;;;11.70;89.10;;;;;;6156004;23;19911;-64
2022/08/09 23:43:01;;;;;;;;;;;11.70;89.60;;;;;;6155586;23;19912;-64
2022/08/09 23:45:28;;;;;;;;;;;11.70;89.20;;;;;;6129675;23;20462;-64
2022/08/09 23:47:54;;;;;;;;;;;11.80;89.20;;;;;;6129557;23;19913;-64
2022/08/09 23:50:21;;;;;;;;;;;11.90;89.00;;;;;;6155729;23;19905;-64
2022/08/09 23:52:47;;;;;;;;;;;12.00;88.90;;;;;;6129460;23;19905;-64
2022/08/09 23:55:14;;;;;;;;;;;12.00;88.60;;;;;;6155685;23;19905;-64
2022/08/09 23:57:41;;;;;;;;;;;12.00;88.70;;;;;;6156036;23;19912;-64
